Time;durP1;ratioP1;P1;durP2;ratioP2;P2;SDS_P1;SDS_P2;PMS_P1;PMS_P2;Temp;Humidity;BMP_temperature;BMP_pressure;BME280_temperature;BME280_humidity;BME280_pressure;Samples;Min_cycle;Max_cycle;Signal;HPM_P1;HPM_P2
2023/08/16 00:00:29;;;;;;;13.32;10.50;;;;;;;;;;2095448;28;20040;-81
2023/08/16 00:01:47;;;;;;;13.82;11.57;;;;;;;;;;2096238;28;20016;-81
2023/08/16 00:03:07;;;;;;;17.05;11.70;;;;;;;;;;2087760;28;20033;-80
2023/08/16 00:04:26;;;;;;;12.13;10.90;;;;;;;;;;2082477;28;20583;-79
2023/08/16 00:05:45;;;;;;;12.55;10.98;;;;;;;;;;2091670;28;20024;-80
2023/08/16 00:07:04;;;;;;;16.40;11.40;;;;;;;;;;2087719;28;20084;-80
2023/08/16 00:08:23;;;;;;;16.73;11.90;;;;;;;;;;2092323;28;20024;-81
2023/08/16 00:09:43;;;;;;;17.70;12.48;;;;;;;;;;2086431;28;20013;-80
2023/08/16 00:11:03;;;;;;;15.65;11.82;;;;;;;;;;2091682;28;20028;-81
2023/08/16 00:12:22;;;;;;;22.73;12.50;;;;;;;;;;2095320;28;20386;-81
2023/08/16 00:13:41;;;;;;;12.13;10.73;;;;;;;;;;2085653;28;20063;-80
2023/08/16 00:15:00;;;;;;;16.30;12.07;;;;;;;;;;2092486;28;20420;-80
2023/08/16 00:16:19;;;;;;;14.00;11.43;;;;;;;;;;2094681;28;20147;-81
2023/08/16 00:17:38;;;;;;;15.73;12.02;;;;;;;;;;2094554;28;20115;-81
2023/08/16 00:18:57;;;;;;;16.83;12.55;;;;;;;;;;2094855;28;20533;-82
2023/08/16 00:20:17;;;;;;;15.45;11.20;;;;;;;;;;2096936;28;20652;-81
2023/08/16 00:21:36;;;;;;;11.65;10.27;;;;;;;;;;2096218;28;20032;-81
2023/08/16 00:22:54;;;;;;;17.52;12.00;;;;;;;;;;2095954;28;20037;-81
2023/08/16 00:24:13;;;;;;;12.75;11.43;;;;;;;;;;2096515;28;20029;-82
2023/08/16 00:25:32;;;;;;;15.82;12.27;;;;;;;;;;2096527;28;20028;-82
2023/08/16 00:26:51;;;;;;;12.75;10.98;;;;;;;;;;2094539;28;20037;-81
2023/08/16 00:28:10;;;;;;;15.52;12.35;;;;;;;;;;2088114;28;20030;-82
2023/08/16 00:29:29;;;;;;;14.25;12.10;;;;;;;;;;2085906;28;20450;-80
2023/08/16 00:30:53;;;;;;;15.80;12.80;;;;;;;;;;2085616;28;20032;-81
2023/08/16 00:32:12;;;;;;;15.27;11.48;;;;;;;;;;2093081;28;20025;-82
2023/08/16 00:33:31;;;;;;;17.63;12.07;;;;;;;;;;2085646;28;20892;-82
2023/08/16 00:34:50;;;;;;;18.13;12.50;;;;;;;;;;2092226;28;20492;-81
2023/08/16 00:36:09;;;;;;;13.38;11.95;;;;;;;;;;2089239;28;20465;-82
2023/08/16 00:37:28;;;;;;;15.55;11.98;;;;;;;;;;2091977;28;20123;-82
2023/08/16 00:38:47;;;;;;;15.65;12.63;;;;;;;;;;2089382;28;20033;-82
2023/08/16 00:40:07;;;;;;;13.73;12.43;;;;;;;;;;2088718;28;20040;-81
2023/08/16 00:41:26;;;;;;;13.52;12.15;;;;;;;;;;2096706;28;20029;-77
2023/08/16 00:42:45;;;;;;;13.80;12.45;;;;;;;;;;2106536;28;20025;-78
2023/08/16 00:44:04;;;;;;;13.88;12.60;;;;;;;;;;2105741;28;20017;-76
2023/08/16 00:45:23;;;;;;;12.80;11.57;;;;;;;;;;2104516;28;20020;-78
2023/08/16 00:46:43;;;;;;;15.20;12.80;;;;;;;;;;2106648;28;20016;-76
2023/08/16 00:48:02;;;;;;;16.30;12.05;;;;;;;;;;2106514;28;20033;-80
2023/08/16 00:49:21;;;;;;;12.88;11.68;;;;;;;;;;2095065;28;20032;-81
2023/08/16 00:50:40;;;;;;;14.13;12.10;;;;;;;;;;2092694;28;20088;-81
2023/08/16 00:52:01;;;;;;;14.68;12.95;;;;;;;;;;2092830;28;20028;-81
2023/08/16 00:53:20;;;;;;;13.18;11.70;;;;;;;;;;2097680;28;20489;-82
2023/08/16 00:54:39;;;;;;;15.75;12.10;;;;;;;;;;2096349;28;20025;-82
2023/08/16 00:55:58;;;;;;;13.55;12.27;;;;;;;;;;2095985;28;20428;-82
2023/08/16 00:57:17;;;;;;;13.57;12.18;;;;;;;;;;2093068;28;20067;-77
2023/08/16 00:58:36;;;;;;;12.00;10.80;;;;;;;;;;2095865;28;20075;-81
2023/08/16 00:59:56;;;;;;;13.38;12.07;;;;;;;;;;2096132;28;20540;-80
2023/08/16 01:01:15;;;;;;;17.92;12.80;;;;;;;;;;2095996;28;20042;-81
2023/08/16 01:02:34;;;;;;;15.40;12.93;;;;;;;;;;2096523;28;20498;-81
2023/08/16 01:03:54;;;;;;;13.90;12.45;;;;;;;;;;2094540;28;20497;-81
2023/08/16 01:05:13;;;;;;;14.02;12.60;;;;;;;;;;2093884;28;20024;-81
2023/08/16 01:06:32;;;;;;;15.35;12.95;;;;;;;;;;2086486;28;20029;-82
2023/08/16 01:07:52;;;;;;;17.15;13.38;;;;;;;;;;2093541;28;20025;-82
2023/08/16 01:09:11;;;;;;;15.05;12.38;;;;;;;;;;2095664;28;20056;-81
2023/08/16 01:10:35;;;;;;;13.93;12.63;;;;;;;;;;2097848;28;20553;-83
2023/08/16 01:12:13;;;;;;;14.32;13.02;;;;;;;;;;2087687;28;20104;-82
2023/08/16 01:13:38;;;;;;;13.75;12.25;;;;;;;;;;2095876;28;20029;-81
2023/08/16 01:15:02;;;;;;;14.13;12.73;;;;;;;;;;2086529;28;20104;-82
2023/08/16 01:16:23;;;;;;;14.63;11.65;;;;;;;;;;2093813;28;20482;-81
2023/08/16 01:17:43;;;;;;;14.20;12.80;;;;;;;;;;2096855;28;20029;-80
2023/08/16 01:19:04;;;;;;;14.93;12.45;;;;;;;;;;2095487;28;20025;-78
2023/08/16 01:20:24;;;;;;;12.10;11.00;;;;;;;;;;2087712;28;20036;-78
2023/08/16 01:21:46;;;;;;;14.50;12.30;;;;;;;;;;2093219;28;20032;-80
2023/08/16 01:23:05;;;;;;;12.98;11.70;;;;;;;;;;2087118;28;20037;-77
2023/08/16 01:24:30;;;;;;;14.30;12.85;;;;;;;;;;2085181;28;20029;-80
2023/08/16 01:25:55;;;;;;;18.92;13.27;;;;;;;;;;2093702;28;20060;-80
2023/08/16 01:27:18;;;;;;;14.23;12.25;;;;;;;;;;2097013;28;20103;-79
2023/08/16 01:28:38;;;;;;;14.50;13.20;;;;;;;;;;2095029;28;20025;-76
2023/08/16 01:29:58;;;;;;;15.45;12.27;;;;;;;;;;2087707;28;20654;-79
2023/08/16 01:31:17;;;;;;;14.30;12.90;;;;;;;;;;2092961;28;20064;-80
2023/08/16 01:32:36;;;;;;;15.07;13.57;;;;;;;;;;2098267;28;20029;-76
2023/08/16 01:33:57;;;;;;;12.70;11.45;;;;;;;;;;2096894;28;20103;-80
2023/08/16 01:35:16;;;;;;;14.10;12.82;;;;;;;;;;2096597;28;20385;-80
2023/08/16 01:36:35;;;;;;;18.95;13.52;;;;;;;;;;2093726;28;20024;-80
2023/08/16 01:37:53;;;;;;;15.20;13.63;;;;;;;;;;2091858;28;20484;-80
2023/08/16 01:39:12;;;;;;;15.73;13.43;;;;;;;;;;2094838;28;20024;-79
2023/08/16 01:40:41;;;;;;;15.68;13.00;;;;;;;;;;2096250;28;20025;-80
2023/08/16 01:42:01;;;;;;;16.27;13.23;;;;;;;;;;2095460;28;20024;-80
2023/08/16 01:43:20;;;;;;;15.70;13.50;;;;;;;;;;2094108;28;20032;-77
2023/08/16 01:44:39;;;;;;;13.48;11.77;;;;;;;;;;2093598;28;20489;-77
2023/08/16 01:46:00;;;;;;;11.75;10.68;;;;;;;;;;2094803;28;20455;-81
2023/08/16 01:47:19;;;;;;;17.05;12.70;;;;;;;;;;2086476;28;20041;-80
2023/08/16 01:48:39;;;;;;;15.00;12.55;;;;;;;;;;2083017;28;21095;-77
2023/08/16 01:49:58;;;;;;;14.00;12.48;;;;;;;;;;2091533;28;20056;-80
2023/08/16 01:51:17;;;;;;;14.10;11.70;;;;;;;;;;2096069;28;20068;-81
2023/08/16 01:52:37;;;;;;;15.25;13.55;;;;;;;;;;2092228;28;20036;-80
2023/08/16 01:53:56;;;;;;;14.30;12.25;;;;;;;;;;2096557;28;20880;-80
2023/08/16 01:55:15;;;;;;;19.20;13.80;;;;;;;;;;2095854;28;20033;-79
2023/08/16 01:56:34;;;;;;;16.42;13.30;;;;;;;;;;2088489;28;20518;-78
2023/08/16 01:57:52;;;;;;;16.48;12.63;;;;;;;;;;2094301;28;20136;-80
2023/08/16 01:59:12;;;;;;;17.58;12.95;;;;;;;;;;2095656;28;20045;-79
2023/08/16 02:00:31;;;;;;;11.77;10.65;;;;;;;;;;2093510;28;20021;-80
2023/08/16 02:01:50;;;;;;;14.15;10.98;;;;;;;;;;2096396;28;20107;-81
2023/08/16 02:03:09;;;;;;;13.30;10.13;;;;;;;;;;2096649;28;20032;-81
2023/08/16 02:04:28;;;;;;;12.80;11.25;;;;;;;;;;2096917;28;20393;-81
2023/08/16 02:05:47;;;;;;;12.02;10.93;;;;;;;;;;2088160;28;20033;-79
2023/08/16 02:07:06;;;;;;;14.15;12.20;;;;;;;;;;2087617;28;20037;-80
2023/08/16 02:08:24;;;;;;;13.23;11.65;;;;;;;;;;2093996;28;20477;-81
2023/08/16 02:09:43;;;;;;;12.70;10.95;;;;;;;;;;2095212;28;20036;-80
2023/08/16 02:11:02;;;;;;;12.43;11.23;;;;;;;;;;2097031;28;20609;-80
2023/08/16 02:12:21;;;;;;;13.60;12.23;;;;;;;;;;2096970;28;20394;-77
2023/08/16 02:13:40;;;;;;;12.95;11.75;;;;;;;;;;2097533;28;20016;-80
2023/08/16 02:14:59;;;;;;;14.85;10.55;;;;;;;;;;2096551;28;20050;-79
2023/08/16 02:16:18;;;;;;;11.60;10.15;;;;;;;;;;2097144;28;20119;-80
2023/08/16 02:17:37;;;;;;;11.57;10.13;;;;;;;;;;2096535;28;20025;-80
2023/08/16 02:18:56;;;;;;;10.35;9.40;;;;;;;;;;2097140;28;20021;-81
2023/08/16 02:20:15;;;;;;;12.52;10.52;;;;;;;;;;2087162;28;20490;-81
2023/08/16 02:21:34;;;;;;;10.60;9.63;;;;;;;;;;2084727;28;20025;-79
2023/08/16 02:22:53;;;;;;;11.85;10.65;;;;;;;;;;2093142;28;20017;-82
2023/08/16 02:24:12;;;;;;;12.75;10.07;;;;;;;;;;2088813;28;20409;-82
2023/08/16 02:25:31;;;;;;;10.65;9.40;;;;;;;;;;2083569;28;20033;-80
2023/08/16 02:26:50;;;;;;;13.43;10.73;;;;;;;;;;2093226;28;20028;-81
2023/08/16 02:28:09;;;;;;;12.40;11.18;;;;;;;;;;2096641;28;20024;-81
2023/08/16 02:29:28;;;;;;;11.88;10.68;;;;;;;;;;2096595;28;20041;-79
2023/08/16 02:30:47;;;;;;;15.75;9.43;;;;;;;;;;2096091;28;20481;-79
2023/08/16 02:32:06;;;;;;;10.15;8.85;;;;;;;;;;2097108;28;20032;-81
2023/08/16 02:33:25;;;;;;;13.43;10.88;;;;;;;;;;2087593;28;20037;-81
2023/08/16 02:34:44;;;;;;;11.23;10.15;;;;;;;;;;2092622;28;20035;-80
2023/08/16 02:36:04;;;;;;;11.70;10.63;;;;;;;;;;2088436;28;20275;-80
2023/08/16 02:37:23;;;;;;;13.02;11.75;;;;;;;;;;2092938;28;20040;-80
2023/08/16 02:38:42;;;;;;;12.63;10.75;;;;;;;;;;2086290;28;20021;-80
2023/08/16 02:40:01;;;;;;;15.63;12.52;;;;;;;;;;2094265;28;20033;-80
2023/08/16 02:41:20;;;;;;;18.13;11.63;;;;;;;;;;2087843;28;20033;-80
2023/08/16 02:42:39;;;;;;;13.88;12.52;;;;;;;;;;2084295;28;20033;-80
2023/08/16 02:43:58;;;;;;;16.65;12.15;;;;;;;;;;2092515;28;20501;-80
2023/08/16 02:45:17;;;;;;;16.55;12.90;;;;;;;;;;2093239;28;21188;-78
2023/08/16 02:46:36;;;;;;;14.82;12.02;;;;;;;;;;2086629;28;20033;-80
2023/08/16 02:47:55;;;;;;;14.20;11.32;;;;;;;;;;2084240;28;20025;-78
2023/08/16 02:49:14;;;;;;;14.38;12.93;;;;;;;;;;2091764;28;20650;-78
2023/08/16 02:50:33;;;;;;;12.25;10.98;;;;;;;;;;2097038;28;20020;-81
2023/08/16 02:51:52;;;;;;;13.25;11.93;;;;;;;;;;2094496;28;20029;-81
2023/08/16 02:53:11;;;;;;;15.57;12.95;;;;;;;;;;2094476;28;20063;-80
2023/08/16 02:54:30;;;;;;;12.07;10.88;;;;;;;;;;2097661;28;20482;-79
2023/08/16 02:55:49;;;;;;;20.35;12.07;;;;;;;;;;2085822;28;20052;-77
2023/08/16 02:57:08;;;;;;;12.15;10.70;;;;;;;;;;2091297;28;20032;-80
2023/08/16 02:58:27;;;;;;;14.75;12.75;;;;;;;;;;2087791;28;20049;-81
2023/08/16 02:59:48;;;;;;;14.30;12.80;;;;;;;;;;2087915;28;20029;-80
2023/08/16 03:01:08;;;;;;;20.70;12.77;;;;;;;;;;2087622;28;20115;-81
2023/08/16 03:02:28;;;;;;;14.18;12.68;;;;;;;;;;2086672;28;20044;-80
2023/08/16 03:03:47;;;;;;;15.10;12.57;;;;;;;;;;2086828;28;20618;-82
2023/08/16 03:05:06;;;;;;;15.07;13.43;;;;;;;;;;2089323;28;20040;-81
2023/08/16 03:06:24;;;;;;;18.40;15.30;;;;;;;;;;2087142;28;20127;-83
2023/08/16 03:07:43;;;;;;;15.38;13.73;;;;;;;;;;2088110;28;20521;-79
2023/08/16 03:09:03;;;;;;;15.85;14.20;;;;;;;;;;2092155;28;20135;-83
2023/08/16 03:10:22;;;;;;;20.63;14.73;;;;;;;;;;2091150;28;20024;-81
2023/08/16 03:11:41;;;;;;;16.48;13.63;;;;;;;;;;2090243;28;20033;-81
2023/08/16 03:13:00;;;;;;;18.98;16.45;;;;;;;;;;2089489;28;20045;-81
2023/08/16 03:14:19;;;;;;;17.58;15.05;;;;;;;;;;2086552;28;20024;-81
2023/08/16 03:15:38;;;;;;;17.77;15.52;;;;;;;;;;2088310;28;20029;-80
2023/08/16 03:16:58;;;;;;;21.15;15.82;;;;;;;;;;2088660;28;20044;-82
2023/08/16 03:18:16;;;;;;;17.27;15.45;;;;;;;;;;2089307;28;20025;-81
2023/08/16 03:19:35;;;;;;;17.23;15.43;;;;;;;;;;2087357;28;20029;-82
2023/08/16 03:20:55;;;;;;;14.45;12.68;;;;;;;;;;2087444;28;20028;-77
2023/08/16 03:22:14;;;;;;;16.88;14.77;;;;;;;;;;2085086;28;20033;-82
2023/08/16 03:23:33;;;;;;;20.80;17.17;;;;;;;;;;2089405;28;20028;-81
2023/08/16 03:24:52;;;;;;;22.65;18.73;;;;;;;;;;2087534;28;20145;-78
2023/08/16 03:26:11;;;;;;;22.88;15.32;;;;;;;;;;2088431;28;20037;-82
2023/08/16 03:27:30;;;;;;;20.92;17.40;;;;;;;;;;2086724;28;20064;-81
2023/08/16 03:28:49;;;;;;;22.27;16.98;;;;;;;;;;2088339;28;20025;-81
2023/08/16 03:30:08;;;;;;;24.40;17.25;;;;;;;;;;2087325;28;20029;-82
2023/08/16 03:31:27;;;;;;;21.98;16.80;;;;;;;;;;2088065;28;20029;-82
2023/08/16 03:32:46;;;;;;;21.50;16.30;;;;;;;;;;2087716;28;20021;-79
2023/08/16 03:34:05;;;;;;;28.13;18.42;;;;;;;;;;2085090;28;20037;-83
2023/08/16 03:35:23;;;;;;;21.60;17.95;;;;;;;;;;2082195;28;20470;-82
2023/08/16 03:36:42;;;;;;;16.27;14.48;;;;;;;;;;2088539;28;20033;-81
2023/08/16 03:38:01;;;;;;;20.15;15.98;;;;;;;;;;2087514;28;20037;-82
2023/08/16 03:39:20;;;;;;;20.45;15.98;;;;;;;;;;2087402;28;20136;-82
2023/08/16 03:40:40;;;;;;;19.88;17.77;;;;;;;;;;2087112;28;20409;-82
2023/08/16 03:41:58;;;;;;;17.83;14.70;;;;;;;;;;2088796;28;20378;-82
2023/08/16 03:43:17;;;;;;;21.15;18.00;;;;;;;;;;2086025;28;20131;-82
2023/08/16 03:44:36;;;;;;;20.20;17.23;;;;;;;;;;2085235;28;20037;-79
2023/08/16 03:45:56;;;;;;;24.88;17.50;;;;;;;;;;2088576;28;20389;-81
2023/08/16 03:47:14;;;;;;;24.40;19.67;;;;;;;;;;2089100;28;20637;-81
2023/08/16 03:48:33;;;;;;;18.80;16.17;;;;;;;;;;2086005;28;20071;-81
2023/08/16 03:49:52;;;;;;;17.83;15.98;;;;;;;;;;2088930;28;20025;-82
2023/08/16 03:51:11;;;;;;;21.17;17.60;;;;;;;;;;2085819;28;20021;-81
2023/08/16 03:52:30;;;;;;;22.90;17.83;;;;;;;;;;2087827;28;20025;-82
2023/08/16 03:53:49;;;;;;;19.83;16.33;;;;;;;;;;2085689;28;20017;-81
2023/08/16 03:55:08;;;;;;;22.77;18.20;;;;;;;;;;2084013;28;20406;-81
2023/08/16 03:56:28;;;;;;;22.05;16.60;;;;;;;;;;2083270;28;20127;-80
2023/08/16 03:57:47;;;;;;;23.83;17.48;;;;;;;;;;2086945;28;20033;-79
2023/08/16 03:59:06;;;;;;;27.92;20.02;;;;;;;;;;2085185;28;20454;-80
2023/08/16 04:00:24;;;;;;;18.95;16.27;;;;;;;;;;2089941;28;20041;-81
2023/08/16 04:01:43;;;;;;;21.83;17.48;;;;;;;;;;2094598;28;20024;-80
2023/08/16 04:03:04;;;;;;;20.45;17.48;;;;;;;;;;2095915;28;20614;-80
2023/08/16 04:04:23;;;;;;;20.45;16.80;;;;;;;;;;2097130;28;20432;-79
2023/08/16 04:05:44;;;;;;;22.17;17.10;;;;;;;;;;2094171;28;20049;-80
2023/08/16 04:07:03;;;;;;;21.75;16.75;;;;;;;;;;2096974;28;20090;-80
2023/08/16 04:08:22;;;;;;;21.85;18.70;;;;;;;;;;2088717;28;20033;-81
2023/08/16 04:09:41;;;;;;;17.98;15.05;;;;;;;;;;2083215;28;20025;-78
2023/08/16 04:11:00;;;;;;;22.63;17.35;;;;;;;;;;2092490;28;20044;-79
2023/08/16 04:12:19;;;;;;;22.70;17.52;;;;;;;;;;2087856;28;20057;-81
2023/08/16 04:13:38;;;;;;;25.13;18.05;;;;;;;;;;2094529;28;20025;-80
2023/08/16 04:14:57;;;;;;;14.55;13.18;;;;;;;;;;2095537;28;20028;-80
2023/08/16 04:16:16;;;;;;;25.98;17.13;;;;;;;;;;2095704;28;20379;-79
2023/08/16 04:17:36;;;;;;;19.38;17.23;;;;;;;;;;2102257;28;20017;-79
2023/08/16 04:18:55;;;;;;;20.08;16.55;;;;;;;;;;2106205;28;20016;-79
2023/08/16 04:20:14;;;;;;;18.35;16.38;;;;;;;;;;2104516;28;20024;-79
2023/08/16 04:21:33;;;;;;;18.48;16.25;;;;;;;;;;2096640;28;20025;-80
2023/08/16 04:22:53;;;;;;;18.25;15.07;;;;;;;;;;2096321;28;20025;-77
2023/08/16 04:24:12;;;;;;;16.73;14.95;;;;;;;;;;2100861;28;20033;-79
2023/08/16 04:25:31;;;;;;;18.27;14.32;;;;;;;;;;2095063;28;20029;-80
2023/08/16 04:26:50;;;;;;;14.18;12.52;;;;;;;;;;2081910;28;20072;-77
2023/08/16 04:28:09;;;;;;;18.67;14.93;;;;;;;;;;2088874;28;20442;-79
2023/08/16 04:29:28;;;;;;;20.40;14.43;;;;;;;;;;2094922;28;20633;-79
2023/08/16 04:30:47;;;;;;;17.55;13.52;;;;;;;;;;2095232;28;20394;-80
2023/08/16 04:32:06;;;;;;;19.90;16.05;;;;;;;;;;2092931;28;20033;-78
2023/08/16 04:33:25;;;;;;;17.40;15.55;;;;;;;;;;2094031;28;20029;-78
2023/08/16 04:34:44;;;;;;;21.65;16.05;;;;;;;;;;2091622;28;20025;-79
2023/08/16 04:36:03;;;;;;;14.52;13.15;;;;;;;;;;2093791;28;20017;-81
2023/08/16 04:37:22;;;;;;;16.45;13.52;;;;;;;;;;2094274;28;20037;-79
2023/08/16 04:38:41;;;;;;;18.98;13.63;;;;;;;;;;2096224;28;20024;-79
2023/08/16 04:40:00;;;;;;;19.25;15.00;;;;;;;;;;2094373;28;20025;-80
2023/08/16 04:41:19;;;;;;;18.63;16.00;;;;;;;;;;2092393;28;20036;-80
2023/08/16 04:42:38;;;;;;;18.30;15.55;;;;;;;;;;2085179;28;20671;-77
2023/08/16 04:43:57;;;;;;;17.80;14.38;;;;;;;;;;2091627;28;20029;-78
2023/08/16 04:45:16;;;;;;;17.13;14.10;;;;;;;;;;2095305;28;20033;-80
2023/08/16 04:46:35;;;;;;;15.57;13.98;;;;;;;;;;2095229;28;20056;-78
2023/08/16 04:47:54;;;;;;;17.70;15.20;;;;;;;;;;2094385;28;20094;-77
2023/08/16 04:49:12;;;;;;;17.77;14.50;;;;;;;;;;2091991;28;20029;-78
2023/08/16 04:50:31;;;;;;;15.98;14.30;;;;;;;;;;2083496;28;20025;-78
2023/08/16 04:51:50;;;;;;;19.63;14.95;;;;;;;;;;2083502;28;20521;-79
2023/08/16 04:53:09;;;;;;;15.68;13.13;;;;;;;;;;2089278;28;20393;-78
2023/08/16 04:54:29;;;;;;;16.65;12.73;;;;;;;;;;2092633;28;20327;-77
2023/08/16 04:55:48;;;;;;;13.77;11.73;;;;;;;;;;2092606;28;20024;-77
2023/08/16 04:57:06;;;;;;;16.00;13.57;;;;;;;;;;2082600;28;20047;-78
2023/08/16 04:58:26;;;;;;;18.75;13.15;;;;;;;;;;2088817;28;20090;-77
2023/08/16 04:59:45;;;;;;;18.75;13.60;;;;;;;;;;2093605;28;21058;-79
2023/08/16 05:01:04;;;;;;;15.20;12.52;;;;;;;;;;2084054;28;20453;-79
2023/08/16 05:02:23;;;;;;;13.65;12.32;;;;;;;;;;2081697;28;20591;-82
2023/08/16 05:03:49;;;;;;;15.05;13.25;;;;;;;;;;2079445;28;20116;-78
2023/08/16 05:05:08;;;;;;;14.30;12.65;;;;;;;;;;2089787;28;20025;-79
2023/08/16 05:06:27;;;;;;;14.07;12.63;;;;;;;;;;2092877;28;20032;-80
2023/08/16 05:07:46;;;;;;;17.95;11.75;;;;;;;;;;2094556;28;20036;-78
2023/08/16 05:09:05;;;;;;;14.75;11.70;;;;;;;;;;2088885;28;20037;-78
2023/08/16 05:10:24;;;;;;;12.13;11.02;;;;;;;;;;2088603;28;20160;-78
2023/08/16 05:11:43;;;;;;;13.55;12.23;;;;;;;;;;2086888;28;20017;-78
2023/08/16 05:13:03;;;;;;;19.70;13.85;;;;;;;;;;2087503;28;20115;-78
2023/08/16 05:14:22;;;;;;;14.15;12.73;;;;;;;;;;2087824;28;20029;-77
2023/08/16 05:15:41;;;;;;;15.13;13.38;;;;;;;;;;2079621;28;20502;-82
2023/08/16 05:17:00;;;;;;;14.73;13.18;;;;;;;;;;2083549;28;20029;-79
2023/08/16 05:18:19;;;;;;;14.90;13.02;;;;;;;;;;2086982;28;20123;-78
2023/08/16 05:19:38;;;;;;;13.90;12.45;;;;;;;;;;2090515;28;20024;-77
2023/08/16 05:21:02;;;;;;;19.75;14.95;;;;;;;;;;2092259;28;20888;-78
2023/08/16 05:22:24;;;;;;;17.95;14.52;;;;;;;;;;2092385;28;20103;-78
2023/08/16 05:23:43;;;;;;;21.73;13.93;;;;;;;;;;2086896;28;20962;-78
2023/08/16 05:25:02;;;;;;;20.52;14.13;;;;;;;;;;2091995;28;20072;-77
2023/08/16 05:26:21;;;;;;;15.90;13.55;;;;;;;;;;2094413;28;20032;-78
2023/08/16 05:27:40;;;;;;;13.82;12.35;;;;;;;;;;2082124;28;20112;-77
2023/08/16 05:28:59;;;;;;;13.48;12.05;;;;;;;;;;2081491;28;20041;-77
2023/08/16 05:30:18;;;;;;;14.82;12.63;;;;;;;;;;2091939;28;20037;-77
2023/08/16 05:31:40;;;;;;;16.65;12.98;;;;;;;;;;2092380;28;20685;-78
2023/08/16 05:32:59;;;;;;;13.00;11.20;;;;;;;;;;2095881;28;20020;-78
2023/08/16 05:34:20;;;;;;;14.95;12.48;;;;;;;;;;2094068;28;20032;-78
2023/08/16 05:35:38;;;;;;;15.98;13.15;;;;;;;;;;2089243;28;20024;-78
2023/08/16 05:36:58;;;;;;;16.17;12.75;;;;;;;;;;2094095;28;20016;-77
2023/08/16 05:38:21;;;;;;;16.77;12.80;;;;;;;;;;2090965;28;20021;-79
2023/08/16 05:39:41;;;;;;;16.52;13.10;;;;;;;;;;2093374;28;20033;-78
2023/08/16 05:41:03;;;;;;;16.52;12.27;;;;;;;;;;2092988;28;20021;-78
2023/08/16 05:42:22;;;;;;;15.45;12.95;;;;;;;;;;2094368;28;20102;-77
2023/08/16 05:43:41;;;;;;;15.68;12.88;;;;;;;;;;2095670;28;20476;-78
2023/08/16 05:45:00;;;;;;;14.35;12.07;;;;;;;;;;2094845;28;20489;-78
2023/08/16 05:46:19;;;;;;;17.02;12.63;;;;;;;;;;2084268;28;20043;-77
2023/08/16 05:47:39;;;;;;;14.15;12.73;;;;;;;;;;2090540;28;20033;-77
2023/08/16 05:49:00;;;;;;;14.80;13.27;;;;;;;;;;2085474;28;20021;-77
2023/08/16 05:50:20;;;;;;;15.20;12.80;;;;;;;;;;2089271;28;20119;-78
2023/08/16 05:51:40;;;;;;;15.55;13.93;;;;;;;;;;2093970;28;20077;-78
2023/08/16 05:52:59;;;;;;;15.35;12.48;;;;;;;;;;2087013;28;20558;-77
2023/08/16 05:54:18;;;;;;;18.42;12.15;;;;;;;;;;2093360;28;20028;-77
2023/08/16 05:55:37;;;;;;;15.10;11.88;;;;;;;;;;2095628;28;20025;-77
2023/08/16 05:56:56;;;;;;;13.73;11.45;;;;;;;;;;2086329;28;20033;-77
2023/08/16 05:58:15;;;;;;;14.50;13.00;;;;;;;;;;2084601;28;20053;-77
2023/08/16 05:59:34;;;;;;;15.80;12.60;;;;;;;;;;2085170;28;20029;-77
2023/08/16 06:00:54;;;;;;;13.73;11.50;;;;;;;;;;2094579;28;20092;-79
2023/08/16 06:02:12;;;;;;;13.00;11.60;;;;;;;;;;2094181;28;20029;-78
2023/08/16 06:03:31;;;;;;;14.35;12.48;;;;;;;;;;2096705;28;20414;-79
2023/08/16 06:04:52;;;;;;;12.68;11.48;;;;;;;;;;2094629;28;20044;-79
2023/08/16 06:06:10;;;;;;;15.70;13.18;;;;;;;;;;2096732;28;20032;-79
2023/08/16 06:07:29;;;;;;;16.15;14.10;;;;;;;;;;2087309;28;20029;-78
2023/08/16 06:08:48;;;;;;;13.30;11.82;;;;;;;;;;2086339;28;20561;-78
2023/08/16 06:10:07;;;;;;;13.95;12.63;;;;;;;;;;2096604;28;20025;-78
2023/08/16 06:11:26;;;;;;;16.02;13.10;;;;;;;;;;2098084;28;20107;-77
2023/08/16 06:12:45;;;;;;;19.35;14.45;;;;;;;;;;2088020;28;20029;-78
2023/08/16 06:14:04;;;;;;;17.15;14.30;;;;;;;;;;2094004;28;20021;-79
2023/08/16 06:15:24;;;;;;;15.35;13.77;;;;;;;;;;2087747;28;20029;-78
2023/08/16 06:16:42;;;;;;;16.52;14.52;;;;;;;;;;2094234;28;20470;-78
2023/08/16 06:18:01;;;;;;;19.55;15.95;;;;;;;;;;2089471;28;20486;-78
2023/08/16 06:19:21;;;;;;;19.17;15.27;;;;;;;;;;2093797;28;20024;-78
2023/08/16 06:20:40;;;;;;;17.88;15.00;;;;;;;;;;2097191;28;20024;-78
2023/08/16 06:21:59;;;;;;;16.60;14.70;;;;;;;;;;2098001;28;20028;-78
2023/08/16 06:23:18;;;;;;;17.95;14.80;;;;;;;;;;2097316;28;20032;-78
2023/08/16 06:24:37;;;;;;;14.10;12.68;;;;;;;;;;2098746;28;20044;-79
2023/08/16 06:25:56;;;;;;;18.60;14.98;;;;;;;;;;2097185;28;20435;-78
2023/08/16 06:27:15;;;;;;;17.83;13.73;;;;;;;;;;2096148;28;20079;-78
2023/08/16 06:28:35;;;;;;;16.08;14.32;;;;;;;;;;2089270;28;20407;-78
2023/08/16 06:29:54;;;;;;;16.15;14.45;;;;;;;;;;2095479;28;20028;-78
2023/08/16 06:31:14;;;;;;;18.33;14.80;;;;;;;;;;2089062;28;20111;-79
2023/08/16 06:32:33;;;;;;;16.90;15.13;;;;;;;;;;2093719;28;20024;-78
2023/08/16 06:33:52;;;;;;;19.23;14.48;;;;;;;;;;2096186;28;20025;-78
2023/08/16 06:35:11;;;;;;;16.73;13.80;;;;;;;;;;2097718;28;20052;-77
2023/08/16 06:36:30;;;;;;;16.63;13.82;;;;;;;;;;2096720;28;20377;-78
2023/08/16 06:37:49;;;;;;;12.27;11.27;;;;;;;;;;2094933;28;20041;-77
2023/08/16 06:39:08;;;;;;;19.35;14.25;;;;;;;;;;2097470;28;20489;-78
2023/08/16 06:40:27;;;;;;;15.75;13.98;;;;;;;;;;2097312;28;20032;-78
2023/08/16 06:41:46;;;;;;;13.73;12.27;;;;;;;;;;2091659;28;20029;-78
2023/08/16 06:43:05;;;;;;;18.83;14.57;;;;;;;;;;2086806;28;20025;-79
2023/08/16 06:44:24;;;;;;;17.60;14.65;;;;;;;;;;2092729;28;20021;-79
2023/08/16 06:45:43;;;;;;;17.48;15.57;;;;;;;;;;2096979;28;20081;-79
2023/08/16 06:47:02;;;;;;;20.40;15.48;;;;;;;;;;2097348;28;20028;-80
2023/08/16 06:48:20;;;;;;;17.63;14.13;;;;;;;;;;2096618;28;20033;-79
2023/08/16 06:49:39;;;;;;;16.42;13.98;;;;;;;;;;2087749;28;20042;-78
2023/08/16 06:50:58;;;;;;;14.98;13.43;;;;;;;;;;2093113;28;20385;-78
2023/08/16 06:52:17;;;;;;;14.05;12.85;;;;;;;;;;2088000;28;20478;-77
2023/08/16 06:53:39;;;;;;;20.08;13.70;;;;;;;;;;2084707;28;20025;-78
2023/08/16 06:54:58;;;;;;;18.88;13.90;;;;;;;;;;2094173;28;20580;-78
2023/08/16 06:56:17;;;;;;;16.63;14.88;;;;;;;;;;2094228;28;20044;-78
2023/08/16 06:57:38;;;;;;;18.60;13.93;;;;;;;;;;2098420;28;20033;-78
2023/08/16 06:58:56;;;;;;;15.90;14.10;;;;;;;;;;2096411;28;20493;-78
2023/08/16 07:00:17;;;;;;;17.80;14.18;;;;;;;;;;2096462;28;20710;-78
2023/08/16 07:01:36;;;;;;;18.13;14.70;;;;;;;;;;2096069;28;20028;-78
2023/08/16 07:02:55;;;;;;;16.63;14.88;;;;;;;;;;2097947;28;20029;-78
2023/08/16 07:04:13;;;;;;;16.70;15.05;;;;;;;;;;2087657;28;20105;-80
2023/08/16 07:05:34;;;;;;;15.68;13.43;;;;;;;;;;2089135;28;20029;-78
2023/08/16 07:06:53;;;;;;;22.02;14.60;;;;;;;;;;2092397;28;20024;-78
2023/08/16 07:08:11;;;;;;;16.77;14.75;;;;;;;;;;2087970;28;20025;-78
2023/08/16 07:09:31;;;;;;;15.32;13.93;;;;;;;;;;2093501;28;20012;-79
2023/08/16 07:10:49;;;;;;;15.48;13.90;;;;;;;;;;2097892;28;20017;-78
2023/08/16 07:12:08;;;;;;;17.60;14.98;;;;;;;;;;2087527;28;20029;-79
2023/08/16 07:13:27;;;;;;;17.13;13.82;;;;;;;;;;2092605;28;20029;-78
2023/08/16 07:14:48;;;;;;;14.20;12.80;;;;;;;;;;2096814;28;20028;-79
2023/08/16 07:16:07;;;;;;;17.15;13.10;;;;;;;;;;2097572;28;20037;-78
2023/08/16 07:17:26;;;;;;;14.73;13.40;;;;;;;;;;2097073;28;20029;-77
2023/08/16 07:18:45;;;;;;;16.88;13.70;;;;;;;;;;2096281;28;20473;-78
2023/08/16 07:20:07;;;;;;;16.42;13.70;;;;;;;;;;2097421;28;20505;-78
2023/08/16 07:21:26;;;;;;;17.40;14.38;;;;;;;;;;2097452;28;20032;-79
2023/08/16 07:22:45;;;;;;;18.40;14.15;;;;;;;;;;2097721;28;20109;-79
2023/08/16 07:24:04;;;;;;;17.52;14.32;;;;;;;;;;2098140;28;20036;-77
2023/08/16 07:25:25;;;;;;;19.67;14.45;;;;;;;;;;2095965;28;20068;-78
2023/08/16 07:26:44;;;;;;;19.40;14.82;;;;;;;;;;2096500;28;20041;-80
2023/08/16 07:28:04;;;;;;;16.70;14.48;;;;;;;;;;2097469;28;20048;-77
2023/08/16 07:29:23;;;;;;;17.45;14.25;;;;;;;;;;2097270;28;20096;-77
2023/08/16 07:30:44;;;;;;;15.75;13.70;;;;;;;;;;2087775;28;20029;-77
2023/08/16 07:32:02;;;;;;;18.55;14.65;;;;;;;;;;2093613;28;20123;-77
2023/08/16 07:33:22;;;;;;;16.73;13.35;;;;;;;;;;2087627;28;20029;-79
2023/08/16 07:34:42;;;;;;;13.32;12.20;;;;;;;;;;2092061;28;20496;-78
2023/08/16 07:36:01;;;;;;;14.98;13.02;;;;;;;;;;2096582;28;20016;-78
2023/08/16 07:37:22;;;;;;;19.17;12.80;;;;;;;;;;2096955;28;20119;-80
2023/08/16 07:38:41;;;;;;;14.45;11.98;;;;;;;;;;2097098;28;20020;-81
2023/08/16 07:40:00;;;;;;;14.85;12.40;;;;;;;;;;2096518;28;20037;-78
2023/08/16 07:41:21;;;;;;;15.38;13.75;;;;;;;;;;2097231;28;20024;-79